Time;durP1;ratioP1;P1;durP2;ratioP2;P2;SDS_P1;SDS_P2;PMS_P1;PMS_P2;Temp;Humidity;BMP_temperature;BMP_pressure;BME280_temperature;BME280_humidity;BME280_pressure;Samples;Min_cycle;Max_cycle;Signal;HPM_P1;HPM_P2
2022/03/21 00:00:22;;;;;;;;;;;5.80;62.40;;;;;;5064429;28;20558;-76
2022/03/21 00:02:49;;;;;;;;;;;5.80;62.20;;;;;;5070334;28;20412;-79
2022/03/21 00:05:17;;;;;;;;;;;5.80;61.80;;;;;;5080466;28;19931;-78
2022/03/21 00:07:44;;;;;;;;;;;5.80;62.30;;;;;;5065019;28;19929;-78
2022/03/21 00:10:11;;;;;;;;;;;5.80;62.40;;;;;;5068995;28;19931;-78
2022/03/21 00:12:39;;;;;;;;;;;5.70;62.80;;;;;;5073064;28;19947;-76
2022/03/21 00:15:09;;;;;;;;;;;5.70;63.90;;;;;;5053406;28;19932;-77
2022/03/21 00:17:39;;;;;;;;;;;5.70;64.70;;;;;;5066533;28;20304;-78
2022/03/21 00:20:06;;;;;;;;;;;5.70;64.60;;;;;;5068464;28;19925;-78
2022/03/21 00:22:33;;;;;;;;;;;5.70;63.70;;;;;;5071100;28;19929;-78
2022/03/21 00:25:00;;;;;;;;;;;5.70;63.20;;;;;;5072641;28;19928;-78
2022/03/21 00:27:27;;;;;;;;;;;5.70;62.40;;;;;;5079021;28;19932;-79
2022/03/21 00:29:53;;;;;;;;;;;5.70;62.10;;;;;;5077288;28;19929;-76
2022/03/21 00:32:20;;;;;;;;;;;5.60;61.70;;;;;;5067076;28;20407;-78
2022/03/21 00:34:47;;;;;;;;;;;5.70;61.80;;;;;;5070240;28;19925;-76
2022/03/21 00:37:14;;;;;;;;;;;5.70;61.80;;;;;;5064191;28;19982;-78
2022/03/21 00:39:41;;;;;;;;;;;5.60;62.60;;;;;;5059417;28;19925;-77
2022/03/21 00:42:10;;;;;;;;;;;5.60;61.70;;;;;;5073228;28;19982;-77
2022/03/21 00:44:39;;;;;;;;;;;5.60;61.70;;;;;;5080522;28;19946;-79
2022/03/21 00:47:06;;;;;;;;;;;5.60;62.40;;;;;;5078270;28;19925;-76
2022/03/21 00:49:33;;;;;;;;;;;5.50;62.90;;;;;;5077387;28;19925;-78
2022/03/21 00:52:00;;;;;;;;;;;5.40;64.10;;;;;;5072957;28;19936;-77
2022/03/21 00:54:27;;;;;;;;;;;5.40;65.40;;;;;;5068758;28;19925;-79
2022/03/21 00:56:53;;;;;;;;;;;5.30;66.70;;;;;;5065478;28;19964;-78
2022/03/21 00:59:20;;;;;;;;;;;5.20;66.30;;;;;;5060865;28;19928;-77
2022/03/21 01:01:47;;;;;;;;;;;5.20;66.20;;;;;;5070653;28;19964;-78
2022/03/21 01:04:14;;;;;;;;;;;5.10;66.60;;;;;;5076899;28;19935;-77
2022/03/21 01:06:40;;;;;;;;;;;5.00;66.80;;;;;;5067589;28;19925;-79
2022/03/21 01:09:09;;;;;;;;;;;5.00;66.50;;;;;;5069233;28;19924;-78
2022/03/21 01:11:36;;;;;;;;;;;4.90;66.30;;;;;;5070126;28;19924;-79
2022/03/21 01:14:03;;;;;;;;;;;4.90;66.20;;;;;;5075792;28;19925;-78
2022/03/21 01:16:30;;;;;;;;;;;4.80;65.70;;;;;;5057680;28;19929;-78
2022/03/21 01:18:56;;;;;;;;;;;4.80;65.50;;;;;;5058313;28;20350;-77
2022/03/21 01:21:23;;;;;;;;;;;4.70;65.40;;;;;;5076900;28;19932;-79
2022/03/21 01:23:50;;;;;;;;;;;4.60;65.30;;;;;;5079547;28;20327;-77
2022/03/21 01:26:17;;;;;;;;;;;4.50;65.30;;;;;;5077532;28;19951;-77
2022/03/21 01:28:43;;;;;;;;;;;4.60;65.50;;;;;;5068051;28;19932;-77
2022/03/21 01:31:10;;;;;;;;;;;4.50;65.50;;;;;;5073646;28;19960;-76
2022/03/21 01:33:38;;;;;;;;;;;4.50;65.50;;;;;;5080185;28;19947;-78
2022/03/21 01:36:05;;;;;;;;;;;4.40;65.40;;;;;;5068520;28;19937;-77
2022/03/21 01:38:31;;;;;;;;;;;4.40;65.30;;;;;;5075379;28;19975;-79
2022/03/21 01:40:58;;;;;;;;;;;4.40;65.50;;;;;;5073450;28;19924;-76
2022/03/21 01:43:25;;;;;;;;;;;4.30;65.60;;;;;;5080344;28;19924;-78
2022/03/21 01:45:54;;;;;;;;;;;4.30;66.40;;;;;;5073359;28;22271;-78
2022/03/21 01:48:21;;;;;;;;;;;4.20;67.10;;;;;;5061517;28;19924;-77
2022/03/21 01:50:48;;;;;;;;;;;4.20;67.50;;;;;;5064323;28;19925;-76
2022/03/21 01:56:01;;;;;;;;;;;4.10;67.00;;;;;;5080436;28;19924;-77
2022/03/21 01:58:30;;;;;;;;;;;4.00;68.20;;;;;;5058345;28;19978;-77
2022/03/21 02:00:56;;;;;;;;;;;4.00;67.70;;;;;;5066315;28;19929;-78
2022/03/21 02:03:24;;;;;;;;;;;4.00;67.60;;;;;;5077181;28;19932;-77
2022/03/21 02:05:51;;;;;;;;;;;4.00;67.30;;;;;;5077642;28;19924;-78
2022/03/21 02:08:18;;;;;;;;;;;4.00;67.40;;;;;;5077689;28;19967;-79
2022/03/21 02:10:45;;;;;;;;;;;3.90;67.20;;;;;;5076989;28;19935;-78
2022/03/21 02:13:13;;;;;;;;;;;3.80;67.00;;;;;;5068393;28;19924;-77
2022/03/21 02:15:40;;;;;;;;;;;3.70;67.50;;;;;;5069872;28;19947;-78
2022/03/21 02:18:09;;;;;;;;;;;3.70;67.20;;;;;;5060123;28;19924;-77
2022/03/21 02:20:37;;;;;;;;;;;3.60;67.60;;;;;;5074399;28;19932;-78
2022/03/21 02:23:12;;;;;;;;;;;3.60;68.10;;;;;;5071898;28;19957;-76
2022/03/21 02:25:41;;;;;;;;;;;3.50;68.40;;;;;;5072611;28;19925;-77
2022/03/21 02:28:14;;;;;;;;;;;3.40;69.40;;;;;;5071325;28;20329;-77
2022/03/21 02:30:48;;;;;;;;;;;3.30;69.30;;;;;;5072527;28;19924;-79
2022/03/21 02:33:18;;;;;;;;;;;3.30;69.30;;;;;;5071728;28;19933;-77
2022/03/21 02:35:46;;;;;;;;;;;3.20;69.30;;;;;;5076325;28;19997;-78
2022/03/21 02:38:13;;;;;;;;;;;3.20;69.10;;;;;;5071822;28;20424;-77
2022/03/21 02:40:40;;;;;;;;;;;3.20;69.50;;;;;;5065824;28;19967;-78
2022/03/21 02:43:07;;;;;;;;;;;3.20;69.10;;;;;;5076159;28;20004;-77
2022/03/21 02:45:34;;;;;;;;;;;3.20;69.40;;;;;;5079591;28;19950;-77
2022/03/21 02:48:00;;;;;;;;;;;3.20;69.10;;;;;;5074875;28;19932;-77
2022/03/21 02:50:39;;;;;;;;;;;3.20;69.10;;;;;;5064313;28;19925;-77
2022/03/21 02:53:06;;;;;;;;;;;3.30;69.80;;;;;;5058421;28;19932;-78
2022/03/21 02:55:33;;;;;;;;;;;3.40;69.90;;;;;;5057161;28;20300;-77
2022/03/21 02:57:59;;;;;;;;;;;3.50;69.50;;;;;;5063433;28;20002;-78
2022/03/21 03:00:27;;;;;;;;;;;3.60;69.00;;;;;;5056132;28;19975;-76
2022/03/21 03:02:53;;;;;;;;;;;3.60;69.60;;;;;;5061862;28;19924;-77
2022/03/21 03:05:20;;;;;;;;;;;3.70;69.00;;;;;;5072808;28;19931;-76
2022/03/21 03:07:47;;;;;;;;;;;3.80;68.90;;;;;;5064324;28;19983;-76
2022/03/21 03:10:14;;;;;;;;;;;3.80;69.10;;;;;;5071883;28;19924;-78
2022/03/21 03:12:41;;;;;;;;;;;3.80;69.00;;;;;;5067126;28;19925;-76
2022/03/21 03:15:08;;;;;;;;;;;3.80;69.30;;;;;;5080502;28;19932;-78
2022/03/21 03:17:35;;;;;;;;;;;3.80;70.00;;;;;;5068442;28;19954;-77
2022/03/21 03:20:01;;;;;;;;;;;3.80;70.50;;;;;;5078563;28;19959;-78
2022/03/21 03:22:28;;;;;;;;;;;3.70;71.60;;;;;;5063910;28;19963;-78
2022/03/21 03:24:56;;;;;;;;;;;3.60;72.70;;;;;;5078343;28;19924;-77
2022/03/21 03:27:22;;;;;;;;;;;3.60;72.00;;;;;;5077223;28;19957;-76
2022/03/21 03:29:52;;;;;;;;;;;3.60;72.70;;;;;;5078147;28;20005;-77
2022/03/21 03:32:19;;;;;;;;;;;3.60;72.80;;;;;;5079044;28;19929;-77
2022/03/21 03:34:46;;;;;;;;;;;3.60;72.50;;;;;;5069985;28;20213;-78
2022/03/21 03:37:16;;;;;;;;;;;3.60;72.80;;;;;;5079362;28;19924;-79
2022/03/21 03:39:43;;;;;;;;;;;3.70;73.00;;;;;;5067687;28;20340;-77
2022/03/21 03:42:10;;;;;;;;;;;3.70;72.10;;;;;;5071383;28;19925;-77
2022/03/21 03:44:37;;;;;;;;;;;3.70;72.20;;;;;;5069567;28;19928;-77
2022/03/21 03:47:04;;;;;;;;;;;3.80;72.00;;;;;;5062497;28;19974;-77
2022/03/21 03:49:31;;;;;;;;;;;3.90;72.50;;;;;;5078409;28;19925;-78
2022/03/21 03:51:58;;;;;;;;;;;3.90;72.30;;;;;;5063393;28;19928;-76
2022/03/21 03:54:25;;;;;;;;;;;4.00;72.70;;;;;;5077890;28;19929;-77
2022/03/21 03:56:51;;;;;;;;;;;4.00;72.40;;;;;;5062887;28;19924;-77
2022/03/21 03:59:21;;;;;;;;;;;4.00;72.70;;;;;;5069275;28;19935;-78
2022/03/21 04:01:50;;;;;;;;;;;4.00;72.50;;;;;;5077380;28;19932;-77
2022/03/21 04:04:19;;;;;;;;;;;4.00;72.70;;;;;;5067961;28;19974;-78
2022/03/21 04:06:46;;;;;;;;;;;4.00;73.70;;;;;;5067238;28;20238;-77
2022/03/21 04:09:13;;;;;;;;;;;4.00;73.10;;;;;;5069508;28;19925;-77
2022/03/21 04:11:40;;;;;;;;;;;4.10;73.70;;;;;;5074146;28;19925;-77
2022/03/21 04:14:06;;;;;;;;;;;4.10;73.30;;;;;;5074909;28;20392;-79
2022/03/21 04:16:43;;;;;;;;;;;4.10;73.20;;;;;;5074250;28;20383;-79
2022/03/21 04:19:11;;;;;;;;;;;4.10;72.70;;;;;;5070085;28;19968;-77
2022/03/21 04:21:38;;;;;;;;;;;4.10;73.20;;;;;;5074220;28;19963;-76
2022/03/21 04:24:04;;;;;;;;;;;4.20;72.70;;;;;;5074377;28;19947;-77
2022/03/21 04:26:31;;;;;;;;;;;4.20;73.80;;;;;;5091119;28;19974;-77
2022/03/21 04:28:59;;;;;;;;;;;4.20;73.40;;;;;;5077582;28;19966;-76
2022/03/21 04:31:26;;;;;;;;;;;4.20;73.00;;;;;;5071501;28;19967;-77
2022/03/21 04:33:53;;;;;;;;;;;4.20;72.50;;;;;;5073700;28;19924;-77
2022/03/21 04:36:19;;;;;;;;;;;4.30;72.50;;;;;;5068889;28;20308;-76
2022/03/21 04:38:46;;;;;;;;;;;4.30;72.50;;;;;;5085155;28;19925;-78
2022/03/21 04:41:13;;;;;;;;;;;4.30;72.20;;;;;;5074913;28;20457;-76
2022/03/21 04:43:40;;;;;;;;;;;4.30;73.70;;;;;;5080793;28;19928;-77
2022/03/21 04:46:06;;;;;;;;;;;4.20;74.30;;;;;;5071982;28;19986;-78
2022/03/21 04:48:33;;;;;;;;;;;4.10;75.00;;;;;;5061989;28;20340;-78
2022/03/21 04:51:00;;;;;;;;;;;4.10;75.40;;;;;;5077567;28;19931;-78
2022/03/21 04:53:27;;;;;;;;;;;4.00;74.70;;;;;;5083471;28;19929;-79
2022/03/21 04:55:53;;;;;;;;;;;4.00;73.80;;;;;;5078179;28;20442;-77
2022/03/21 04:58:20;;;;;;;;;;;4.10;73.60;;;;;;5076054;28;19971;-78
2022/03/21 05:00:48;;;;;;;;;;;4.10;73.30;;;;;;5081493;28;19978;-77
2022/03/21 05:03:15;;;;;;;;;;;4.10;73.20;;;;;;5068327;28;19935;-78
2022/03/21 05:05:43;;;;;;;;;;;4.10;73.10;;;;;;5079489;28;19909;-79
2022/03/21 05:08:10;;;;;;;;;;;4.20;73.10;;;;;;5061415;28;19955;-78
2022/03/21 05:10:37;;;;;;;;;;;4.20;74.10;;;;;;5058847;28;19963;-78
2022/03/21 05:13:03;;;;;;;;;;;4.20;74.20;;;;;;5073353;28;20356;-77
2022/03/21 05:15:31;;;;;;;;;;;4.20;73.90;;;;;;5080802;28;19931;-77
2022/03/21 05:17:58;;;;;;;;;;;4.20;73.20;;;;;;5080750;28;20548;-76
2022/03/21 05:20:27;;;;;;;;;;;4.20;73.10;;;;;;5075206;28;20392;-77
2022/03/21 05:31:11;;;;;;;;;;;4.30;72.60;;;;;;5067091;28;19983;-77
2022/03/21 05:36:27;;;;;;;;;;;4.30;72.70;;;;;;5079701;28;20599;-77
2022/03/21 05:38:54;;;;;;;;;;;4.40;72.30;;;;;;5078358;28;20044;-77
2022/03/21 05:41:21;;;;;;;;;;;4.40;72.00;;;;;;5064710;28;19924;-77
2022/03/21 05:43:49;;;;;;;;;;;4.50;71.70;;;;;;5056432;28;19925;-78
2022/03/21 05:46:17;;;;;;;;;;;4.60;71.80;;;;;;5064345;28;19924;-78
2022/03/21 05:49:02;;;;;;;;;;;4.50;74.70;;;;;;5075030;28;19963;-78
2022/03/21 05:51:36;;;;;;;;;;;4.50;74.30;;;;;;5077804;28;19979;-78
2022/03/21 05:54:05;;;;;;;;;;;4.40;74.30;;;;;;5066514;28;19925;-77
2022/03/21 05:56:32;;;;;;;;;;;4.50;74.00;;;;;;5057534;28;19925;-76
2022/03/21 06:01:44;;;;;;;;;;;4.40;74.40;;;;;;5074854;28;19928;-77
2022/03/21 06:04:12;;;;;;;;;;;4.50;74.30;;;;;;5066934;28;19935;-78
2022/03/21 06:06:39;;;;;;;;;;;4.50;75.00;;;;;;5070603;28;19971;-78
2022/03/21 06:09:06;;;;;;;;;;;4.50;74.30;;;;;;5074854;28;19936;-78
2022/03/21 06:11:34;;;;;;;;;;;4.50;73.90;;;;;;5072237;28;19924;-76
2022/03/21 06:14:02;;;;;;;;;;;4.60;73.80;;;;;;5061410;28;19925;-77
2022/03/21 06:16:29;;;;;;;;;;;4.60;73.60;;;;;;5071162;28;19982;-78
2022/03/21 06:18:59;;;;;;;;;;;4.60;73.40;;;;;;5061294;28;20493;-78
2022/03/21 06:21:29;;;;;;;;;;;4.60;74.20;;;;;;5071378;28;20393;-78
2022/03/21 06:23:56;;;;;;;;;;;4.60;73.90;;;;;;5057453;28;20342;-76
2022/03/21 06:26:27;;;;;;;;;;;4.60;74.60;;;;;;5068512;28;20020;-78
2022/03/21 06:28:54;;;;;;;;;;;4.70;73.90;;;;;;5078267;28;19925;-77
2022/03/21 06:31:20;;;;;;;;;;;4.70;73.80;;;;;;5070642;28;19970;-78
2022/03/21 06:33:47;;;;;;;;;;;4.80;73.60;;;;;;5075346;28;20043;-78
2022/03/21 06:36:14;;;;;;;;;;;4.80;73.50;;;;;;5067383;28;19950;-78
2022/03/21 06:38:41;;;;;;;;;;;4.80;72.80;;;;;;5066477;28;20338;-78
2022/03/21 06:41:08;;;;;;;;;;;4.90;73.00;;;;;;5072381;28;19928;-78
2022/03/21 06:43:35;;;;;;;;;;;4.90;72.20;;;;;;5057471;28;20035;-78
2022/03/21 06:46:05;;;;;;;;;;;4.90;72.10;;;;;;5069291;28;19984;-78
2022/03/21 06:48:34;;;;;;;;;;;5.00;72.30;;;;;;5056252;28;19928;-77
2022/03/21 06:51:01;;;;;;;;;;;5.00;71.70;;;;;;5061594;28;19982;-78
2022/03/21 06:53:28;;;;;;;;;;;5.10;71.50;;;;;;5065510;28;19933;-78
2022/03/21 06:55:55;;;;;;;;;;;5.20;71.30;;;;;;5062042;28;20458;-78
2022/03/21 06:58:22;;;;;;;;;;;5.20;71.10;;;;;;5053441;28;20746;-78
2022/03/21 07:00:48;;;;;;;;;;;5.30;70.90;;;;;;5066426;28;19982;-78
2022/03/21 07:03:16;;;;;;;;;;;5.40;70.70;;;;;;5058873;28;19974;-78
2022/03/21 07:05:44;;;;;;;;;;;5.50;71.20;;;;;;5055209;28;20244;-78
2022/03/21 07:08:11;;;;;;;;;;;5.60;70.10;;;;;;5064285;28;20381;-77
2022/03/21 07:10:41;;;;;;;;;;;5.70;69.70;;;;;;5068750;28;19924;-76
2022/03/21 07:13:08;;;;;;;;;;;5.80;69.70;;;;;;5072327;28;20109;-77
2022/03/21 07:15:35;;;;;;;;;;;5.90;72.30;;;;;;5058900;28;19925;-78
2022/03/21 07:18:02;;;;;;;;;;;5.90;72.20;;;;;;5058433;28;19931;-79
2022/03/21 07:20:28;;;;;;;;;;;6.00;72.80;;;;;;5064560;28;19932;-78
2022/03/21 07:22:56;;;;;;;;;;;6.00;73.00;;;;;;5065103;28;19924;-78
2022/03/21 07:25:23;;;;;;;;;;;6.10;72.80;;;;;;5052973;28;19986;-79
2022/03/21 07:27:51;;;;;;;;;;;6.20;72.50;;;;;;5071882;28;20296;-79
2022/03/21 07:30:18;;;;;;;;;;;6.20;72.20;;;;;;5074791;28;19970;-79
2022/03/21 07:32:45;;;;;;;;;;;6.20;72.30;;;;;;5078345;28;19974;-79
2022/03/21 07:35:13;;;;;;;;;;;6.30;73.70;;;;;;5063355;28;20381;-78
2022/03/21 07:37:40;;;;;;;;;;;6.30;72.80;;;;;;5064308;28;20434;-77
2022/03/21 07:40:10;;;;;;;;;;;6.40;72.40;;;;;;5066102;28;19975;-78
2022/03/21 07:42:38;;;;;;;;;;;6.40;72.20;;;;;;5061731;28;19929;-78
2022/03/21 07:47:54;;;;;;;;;;;6.60;71.60;;;;;;5065781;28;19928;-77
2022/03/21 07:50:23;;;;;;;;;;;6.70;71.80;;;;;;5074392;28;19925;-78
2022/03/21 07:52:51;;;;;;;;;;;6.70;71.40;;;;;;5060113;28;19939;-79
2022/03/21 07:55:18;;;;;;;;;;;6.70;70.70;;;;;;5064256;28;20278;-78
2022/03/21 07:57:45;;;;;;;;;;;6.70;69.30;;;;;;5075864;28;19954;-77
2022/03/21 08:00:13;;;;;;;;;;;6.80;69.40;;;;;;5068959;28;20312;-77
2022/03/21 08:02:42;;;;;;;;;;;6.90;69.20;;;;;;5063820;28;19933;-78
2022/03/21 08:05:09;;;;;;;;;;;6.90;68.40;;;;;;5068429;28;19929;-78
2022/03/21 08:07:36;;;;;;;;;;;7.00;68.00;;;;;;5059066;28;20330;-77
2022/03/21 08:10:03;;;;;;;;;;;7.00;67.30;;;;;;5075908;28;19978;-78
2022/03/21 08:12:35;;;;;;;;;;;7.00;67.20;;;;;;5077693;28;19931;-79
2022/03/21 08:15:03;;;;;;;;;;;7.10;66.80;;;;;;5075052;28;20381;-79
2022/03/21 08:17:30;;;;;;;;;;;7.10;66.20;;;;;;5074169;28;19929;-77
2022/03/21 08:19:58;;;;;;;;;;;7.20;65.80;;;;;;5056253;28;19924;-77
2022/03/21 08:22:24;;;;;;;;;;;7.20;65.70;;;;;;5072878;28;19955;-78
2022/03/21 08:24:52;;;;;;;;;;;7.30;64.90;;;;;;5073614;28;19932;-77
2022/03/21 08:27:20;;;;;;;;;;;7.40;64.50;;;;;;5060496;28;19955;-79
2022/03/21 08:29:47;;;;;;;;;;;7.50;63.50;;;;;;5067786;28;19928;-78
2022/03/21 08:32:14;;;;;;;;;;;7.50;63.80;;;;;;5075976;28;19998;-79
2022/03/21 08:34:40;;;;;;;;;;;7.60;63.40;;;;;;5062856;28;19933;-77
2022/03/21 08:37:07;;;;;;;;;;;7.70;62.10;;;;;;5065091;28;19974;-78
2022/03/21 08:39:34;;;;;;;;;;;7.80;62.50;;;;;;5066749;28;19929;-77
2022/03/21 08:42:01;;;;;;;;;;;8.00;63.10;;;;;;5078636;28;19928;-78
2022/03/21 08:44:28;;;;;;;;;;;8.30;61.10;;;;;;5064661;28;19971;-79
2022/03/21 08:46:55;;;;;;;;;;;8.60;60.20;;;;;;5069532;28;19924;-79
2022/03/21 08:49:26;;;;;;;;;;;8.90;57.20;;;;;;5072408;28;19950;-77
2022/03/21 08:51:58;;;;;;;;;;;9.00;51.90;;;;;;5074020;28;19925;-79
2022/03/21 08:54:25;;;;;;;;;;;9.30;52.70;;;;;;5066739;28;19928;-77
2022/03/21 08:56:52;;;;;;;;;;;9.50;52.50;;;;;;5066071;28;20450;-79
2022/03/21 08:59:18;;;;;;;;;;;9.70;50.40;;;;;;5078476;28;19925;-79
2022/03/21 09:01:45;;;;;;;;;;;10.00;48.80;;;;;;5085785;28;20342;-78
2022/03/21 09:04:12;;;;;;;;;;;10.00;48.20;;;;;;5066456;28;19925;-78
2022/03/21 09:06:40;;;;;;;;;;;10.20;48.30;;;;;;5081256;28;20011;-80
2022/03/21 09:09:07;;;;;;;;;;;10.30;48.30;;;;;;5077637;28;19924;-78
2022/03/21 09:11:34;;;;;;;;;;;10.40;47.70;;;;;;5091467;28;20274;-76
2022/03/21 09:14:01;;;;;;;;;;;10.50;47.40;;;;;;5079251;28;19921;-79
2022/03/21 09:16:28;;;;;;;;;;;10.60;49.20;;;;;;5078547;28;19955;-78
2022/03/21 09:18:55;;;;;;;;;;;10.70;48.20;;;;;;5068906;28;19924;-78
2022/03/21 09:21:22;;;;;;;;;;;10.90;49.40;;;;;;5068013;28;20040;-77
2022/03/21 09:23:49;;;;;;;;;;;11.10;47.10;;;;;;5082717;28;20678;-79
2022/03/21 09:26:15;;;;;;;;;;;11.20;44.90;;;;;;5080074;28;19931;-80
2022/03/21 09:28:44;;;;;;;;;;;11.40;46.60;;;;;;5073442;28;19924;-80
2022/03/21 09:31:13;;;;;;;;;;;11.50;43.30;;;;;;5061782;28;19928;-78
2022/03/21 09:33:59;;;;;;;;;;;11.60;40.30;;;;;;5062794;28;19956;-80
2022/03/21 09:36:27;;;;;;;;;;;11.70;39.70;;;;;;5065649;28;19982;-78
2022/03/21 09:38:54;;;;;;;;;;;11.80;40.40;;;;;;5074996;28;19925;-78
2022/03/21 09:41:25;;;;;;;;;;;11.90;39.20;;;;;;5067789;28;19932;-79
2022/03/21 09:43:54;;;;;;;;;;;11.90;37.60;;;;;;5081794;28;19924;-78
2022/03/21 09:46:21;;;;;;;;;;;12.00;37.60;;;;;;5083044;28;20379;-80
2022/03/21 09:48:48;;;;;;;;;;;11.90;36.30;;;;;;5068475;28;19928;-79
2022/03/21 09:51:41;;;;;;;;;;;12.00;36.20;;;;;;5076186;28;19908;-78
2022/03/21 09:54:09;;;;;;;;;;;12.00;37.80;;;;;;5062771;28;19986;-78
2022/03/21 09:56:36;;;;;;;;;;;12.20;39.40;;;;;;5077574;28;19909;-80
2022/03/21 09:59:04;;;;;;;;;;;12.40;39.60;;;;;;5075761;28;19936;-79
2022/03/21 10:01:31;;;;;;;;;;;12.40;38.40;;;;;;5064357;28;19928;-80
2022/03/21 10:04:00;;;;;;;;;;;12.40;38.40;;;;;;5082228;28;19992;-78
2022/03/21 10:06:27;;;;;;;;;;;12.50;38.80;;;;;;5072201;28;19924;-79
2022/03/21 10:09:25;;;;;;;;;;;12.60;37.40;;;;;;5071467;28;20007;-78
2022/03/21 10:11:56;;;;;;;;;;;12.60;38.60;;;;;;5056290;28;19931;-79
2022/03/21 10:14:25;;;;;;;;;;;12.70;37.40;;;;;;5091617;28;19909;-78
2022/03/21 10:16:53;;;;;;;;;;;12.70;37.20;;;;;;5065705;28;20362;-77
2022/03/21 10:19:20;;;;;;;;;;;12.70;36.80;;;;;;5072039;28;19931;-78
2022/03/21 10:22:04;;;;;;;;;;;12.70;37.30;;;;;;5080657;28;19947;-80
2022/03/21 10:24:35;;;;;;;;;;;12.70;37.80;;;;;;5081042;28;19925;-78
2022/03/21 10:27:02;;;;;;;;;;;12.60;37.10;;;;;;5069055;28;20389;-78
2022/03/21 10:29:31;;;;;;;;;;;12.70;37.30;;;;;;5073088;28;19928;-79
2022/03/21 10:31:58;;;;;;;;;;;12.80;38.50;;;;;;5080512;28;19955;-77
2022/03/21 10:34:34;;;;;;;;;;;12.80;37.00;;;;;;5075202;28;19971;-78
2022/03/21 10:37:00;;;;;;;;;;;12.90;37.90;;;;;;5068105;28;19932;-77
2022/03/21 10:39:28;;;;;;;;;;;12.90;37.20;;;;;;5069075;28;19990;-78
2022/03/21 10:41:59;;;;;;;;;;;13.20;38.30;;;;;;5070181;28;19928;-78
2022/03/21 10:44:26;;;;;;;;;;;13.50;39.80;;;;;;5076338;28;19932;-80
2022/03/21 10:46:58;;;;;;;;;;;13.60;37.30;;;;;;5062864;28;19974;-78
2022/03/21 10:49:37;;;;;;;;;;;13.50;37.10;;;;;;5071575;28;19925;-78
2022/03/21 10:52:05;;;;;;;;;;;13.50;38.00;;;;;;5064710;28;19940;-77
2022/03/21 10:54:36;;;;;;;;;;;13.50;37.00;;;;;;5080968;28;19916;-78
2022/03/21 10:57:03;;;;;;;;;;;13.30;37.00;;;;;;5080246;28;19915;-79
2022/03/21 10:59:31;;;;;;;;;;;13.20;37.60;;;;;;5069615;28;19994;-79
2022/03/21 11:02:10;;;;;;;;;;;13.20;38.20;;;;;;5078645;28;20400;-77
2022/03/21 11:04:39;;;;;;;;;;;13.30;38.50;;;;;;5070134;28;19933;-77
2022/03/21 11:07:06;;;;;;;;;;;13.50;38.50;;;;;;5070696;28;19951;-78
2022/03/21 11:09:34;;;;;;;;;;;13.60;37.80;;;;;;5071192;28;20256;-78
2022/03/21 11:12:02;;;;;;;;;;;13.70;38.30;;;;;;5068391;28;20351;-79
2022/03/21 11:14:29;;;;;;;;;;;13.60;37.20;;;;;;5086850;28;19935;-79
2022/03/21 11:16:56;;;;;;;;;;;13.70;37.80;;;;;;5075830;28;19928;-79
2022/03/21 11:19:23;;;;;;;;;;;13.70;38.70;;;;;;5076026;28;19924;-79
2022/03/21 11:21:50;;;;;;;;;;;13.70;37.60;;;;;;5079639;28;19950;-78
2022/03/21 11:24:17;;;;;;;;;;;13.50;37.90;;;;;;5092447;28;19928;-78
2022/03/21 11:27:16;;;;;;;;;;;13.70;37.60;;;;;;5073649;28;20342;-77
2022/03/21 11:29:43;;;;;;;;;;;13.70;37.60;;;;;;5032095;28;19928;-78
2022/03/21 11:32:32;;;;;;;;;;;14.10;37.40;;;;;;5066552;28;19951;-79
2022/03/21 11:35:04;;;;;;;;;;;14.10;38.70;;;;;;5056129;28;20002;-78
2022/03/21 11:37:32;;;;;;;;;;;13.80;37.80;;;;;;5074970;28;20445;-79
2022/03/21 11:40:17;;;;;;;;;;;13.90;38.70;;;;;;5071915;28;20449;-78
2022/03/21 11:42:44;;;;;;;;;;;14.00;37.80;;;;;;5074497;28;19928;-77
2022/03/21 11:45:26;;;;;;;;;;;13.80;38.00;;;;;;5082478;28;19928;-79
2022/03/21 11:48:11;;;;;;;;;;;13.90;37.20;;;;;;5068867;28;20391;-79
2022/03/21 11:50:38;;;;;;;;;;;14.00;37.80;;;;;;5071214;28;19916;-79
2022/03/21 11:53:09;;;;;;;;;;;14.10;37.10;;;;;;5075679;28;19982;-79
2022/03/21 11:55:44;;;;;;;;;;;14.10;36.80;;;;;;5080980;28;20461;-79
2022/03/21 11:58:36;;;;;;;;;;;14.30;38.60;;;;;;5057421;28;19960;-80
2022/03/21 12:01:07;;;;;;;;;;;14.50;36.80;;;;;;5066453;28;19925;-78
2022/03/21 12:03:35;;;;;;;;;;;14.40;36.70;;;;;;5069008;28;19943;-79
2022/03/21 12:06:23;;;;;;;;;;;14.40;35.50;;;;;;5073467;28;19929;-78
2022/03/21 12:08:54;;;;;;;;;;;14.40;36.30;;;;;;5064179;28;19967;-80
2022/03/21 12:11:37;;;;;;;;;;;14.20;35.50;;;;;;5078599;28;19928;-79
2022/03/21 12:14:23;;;;;;;;;;;14.30;36.60;;;;;;5075010;28;19928;-80
2022/03/21 12:17:02;;;;;;;;;;;14.10;36.20;;;;;;5080216;28;19967;-79
2022/03/21 12:19:44;;;;;;;;;;;14.10;36.10;;;;;;5062996;28;20370;-80
2022/03/21 12:22:26;;;;;;;;;;;14.30;35.80;;;;;;5065989;28;20473;-79
2022/03/21 12:24:54;;;;;;;;;;;14.40;36.40;;;;;;5074959;28;20455;-80
2022/03/21 12:27:31;;;;;;;;;;;14.70;34.80;;;;;;5069623;28;20354;-79
2022/03/21 12:30:16;;;;;;;;;;;15.00;34.50;;;;;;5066049;28;19924;-78
2022/03/21 12:32:50;;;;;;;;;;;15.30;34.70;;;;;;5070678;28;20400;-80
2022/03/21 12:35:32;;;;;;;;;;;15.50;34.00;;;;;;5083601;28;20461;-80
2022/03/21 12:38:03;;;;;;;;;;;15.80;33.50;;;;;;5070066;28;19929;-80
2022/03/21 12:40:34;;;;;;;;;;;15.50;31.90;;;;;;5051944;28;20024;-79
2022/03/21 12:43:01;;;;;;;;;;;15.60;32.70;;;;;;5074199;28;19931;-78
2022/03/21 12:45:29;;;;;;;;;;;15.80;33.50;;;;;;5070755;28;19929;-80
2022/03/21 12:48:00;;;;;;;;;;;15.90;32.90;;;;;;5064276;28;20384;-79
2022/03/21 12:50:27;;;;;;;;;;;15.70;31.90;;;;;;5079821;28;20380;-79
2022/03/21 12:52:55;;;;;;;;;;;15.70;32.10;;;;;;5071651;28;19928;-79
2022/03/21 12:55:23;;;;;;;;;;;15.80;33.10;;;;;;5064086;28;20343;-80
2022/03/21 12:57:56;;;;;;;;;;;15.60;33.00;;;;;;5062313;28;19928;-79
2022/03/21 13:00:23;;;;;;;;;;;15.40;32.70;;;;;;5067832;28;19924;-79
2022/03/21 13:02:55;;;;;;;;;;;15.20;32.60;;;;;;5057609;28;20343;-80
2022/03/21 13:11:03;;;;;;;;;;;15.50;33.40;;;;;;5085618;28;19928;-79
2022/03/21 13:13:40;;;;;;;;;;;15.70;33.20;;;;;;5063288;28;19929;-80
2022/03/21 13:16:09;;;;;;;;;;;15.80;33.10;;;;;;5084266;28;20008;-80
2022/03/21 13:18:37;;;;;;;;;;;15.90;32.60;;;;;;5066082;28;19937;-79
2022/03/21 13:21:04;;;;;;;;;;;15.80;32.50;;;;;;5062854;28;20323;-79
2022/03/21 13:23:32;;;;;;;;;;;15.50;31.50;;;;;;5074559;28;20023;-78
2022/03/21 13:26:10;;;;;;;;;;;15.70;33.20;;;;;;5069352;28;19978;-80
2022/03/21 13:28:38;;;;;;;;;;;15.50;32.40;;;;;;5073226;28;20010;-79
2022/03/21 13:31:12;;;;;;;;;;;15.50;32.70;;;;;;5070946;28;19928;-78
2022/03/21 13:33:40;;;;;;;;;;;15.20;31.70;;;;;;5071090;28;20526;-78
2022/03/21 13:36:13;;;;;;;;;;;15.20;32.40;;;;;;5080028;28;19935;-80
2022/03/21 13:38:40;;;;;;;;;;;15.00;31.80;;;;;;5063207;28;20523;-79
2022/03/21 13:41:14;;;;;;;;;;;15.00;33.00;;;;;;5065872;28;19939;-80
2022/03/21 13:43:41;;;;;;;;;;;15.00;32.50;;;;;;5070188;28;19917;-79
2022/03/21 13:46:09;;;;;;;;;;;15.20;33.10;;;;;;5072108;28;19928;-77
2022/03/21 13:48:38;;;;;;;;;;;15.40;32.20;;;;;;5070451;28;19933;-79
2022/03/21 13:51:26;;;;;;;;;;;15.50;32.20;;;;;;5069530;28;19928;-79
2022/03/21 13:54:09;;;;;;;;;;;15.40;31.60;;;;;;5074909;28;19924;-79
2022/03/21 13:56:37;;;;;;;;;;;15.30;31.90;;;;;;5064103;28;19924;-79
2022/03/21 13:59:12;;;;;;;;;;;15.30;33.00;;;;;;5062463;28;19983;-80
2022/03/21 14:01:40;;;;;;;;;;;15.40;33.00;;;;;;5075013;28;19925;-78
2022/03/21 14:04:18;;;;;;;;;;;15.70;32.90;;;;;;5075375;28;19929;-79
2022/03/21 14:07:14;;;;;;;;;;;15.90;32.00;;;;;;5070119;28;19925;-78
2022/03/21 14:09:48;;;;;;;;;;;15.90;31.60;;;;;;5054356;28;19924;-79
2022/03/21 14:12:15;;;;;;;;;;;15.60;31.00;;;;;;5084044;28;19935;-80
2022/03/21 14:14:42;;;;;;;;;;;15.60;32.00;;;;;;5069412;28;20347;-77
2022/03/21 14:17:09;;;;;;;;;;;15.70;31.90;;;;;;5057353;28;19929;-78
2022/03/21 14:19:36;;;;;;;;;;;15.70;31.20;;;;;;5068096;28;20351;-80
2022/03/21 14:22:03;;;;;;;;;;;15.60;31.30;;;;;;5063353;28;19932;-78
2022/03/21 14:24:30;;;;;;;;;;;15.80;31.60;;;;;;5068328;28;20304;-77
2022/03/21 14:26:56;;;;;;;;;;;15.80;31.70;;;;;;5068833;28;19924;-80
2022/03/21 14:29:23;;;;;;;;;;;15.70;31.30;;;;;;5070679;28;19967;-79
2022/03/21 14:31:52;;;;;;;;;;;15.70;31.00;;;;;;5072292;28;19954;-77
2022/03/21 14:34:19;;;;;;;;;;;15.80;31.20;;;;;;5063684;28;19947;-78
2022/03/21 14:36:47;;;;;;;;;;;15.90;31.50;;;;;;5078484;28;19928;-80
2022/03/21 14:39:15;;;;;;;;;;;15.90;31.90;;;;;;5082786;28;19929;-79
2022/03/21 14:41:42;;;;;;;;;;;15.80;31.80;;;;;;5066338;28;19924;-77
2022/03/21 14:44:09;;;;;;;;;;;15.80;31.50;;;;;;5066586;28;19960;-77
2022/03/21 14:46:36;;;;;;;;;;;15.90;31.00;;;;;;5063052;28;19924;-79
2022/03/21 14:49:03;;;;;;;;;;;15.80;31.30;;;;;;5074534;28;19928;-79
2022/03/21 14:51:37;;;;;;;;;;;15.90;31.00;;;;;;5079674;28;19928;-79
2022/03/21 14:54:04;;;;;;;;;;;15.90;31.30;;;;;;5063509;28;20509;-80
2022/03/21 14:56:32;;;;;;;;;;;15.90;31.60;;;;;;5069813;28;20405;-80
2022/03/21 14:58:59;;;;;;;;;;;15.90;31.10;;;;;;5067493;28;19936;-79